NOZ546 ENGM-ENZV
Flight info
| Callsign | NOZ546 |
|---|---|
| Flight time | 0h 45m |
| Altitude | 32000 |
| Route | ATLAP DCT IPMOD DCT ROPNO |
| Aircraft | B738/M-SDE2E3FGHIRWXY/LB1 |
Departure
| Time | 2026-05-05 17:46 |
|---|---|
| Airport | Oslo-Gardermoen International Airport (ENGM) |
Arrival
| Time | 2026-05-05 18:31 |
|---|---|
| Airport | Stavanger Airport, Sola (ENZV) |
| Time | Latitude | Longitude | Altitude | Speed | Heading |
|---|---|---|---|---|---|
| 2026-05-05 17:19 | 60.19567 | 11.09427 | 680 ft | 0 kts | 197° |
| 2026-05-05 17:34 | 60.19567 | 11.09428 | 680 ft | 1 kts | 197° |
| 2026-05-05 17:34 | 60.19583 | 11.09437 | 681 ft | 2 kts | 196° |
| 2026-05-05 17:34 | 60.19599 | 11.09446 | 681 ft | 2 kts | 196° |
| 2026-05-05 17:34 | 60.19615 | 11.09455 | 681 ft | 2 kts | 196° |
| 2026-05-05 17:35 | 60.19623 | 11.09460 | 680 ft | 0 kts | 196° |
| 2026-05-05 17:38 | 60.19622 | 11.09459 | 680 ft | 1 kts | 203° |
| 2026-05-05 17:38 | 60.19619 | 11.09442 | 677 ft | 2 kts | 262° |
| 2026-05-05 17:38 | 60.19633 | 11.09423 | 678 ft | 4 kts | 340° |
| 2026-05-05 17:38 | 60.19669 | 11.09398 | 678 ft | 7 kts | 332° |
| 2026-05-05 17:39 | 60.19696 | 11.09298 | 681 ft | 10 kts | 285° |
| 2026-05-05 17:39 | 60.19719 | 11.09145 | 680 ft | 14 kts | 287° |
| 2026-05-05 17:39 | 60.19747 | 11.08949 | 677 ft | 15 kts | 286° |
| 2026-05-05 17:39 | 60.19773 | 11.08749 | 676 ft | 15 kts | 277° |
| 2026-05-05 17:40 | 60.19705 | 11.08634 | 677 ft | 14 kts | 195° |
| 2026-05-05 17:40 | 60.19614 | 11.08582 | 677 ft | 13 kts | 195° |
| 2026-05-05 17:40 | 60.19525 | 11.08529 | 679 ft | 13 kts | 196° |
| 2026-05-05 17:40 | 60.19425 | 11.08471 | 679 ft | 17 kts | 196° |
| 2026-05-05 17:41 | 60.19315 | 11.08407 | 679 ft | 16 kts | 195° |
| 2026-05-05 17:41 | 60.19230 | 11.08301 | 677 ft | 13 kts | 257° |
| 2026-05-05 17:41 | 60.19249 | 11.08120 | 668 ft | 6 kts | 285° |
| 2026-05-05 17:41 | 60.19252 | 11.08095 | 670 ft | 0 kts | 284° |
| 2026-05-05 17:43 | 60.19259 | 11.08042 | 669 ft | 10 kts | 285° |
| 2026-05-05 17:44 | 60.19279 | 11.07898 | 666 ft | 5 kts | 287° |
| 2026-05-05 17:44 | 60.19304 | 11.07849 | 668 ft | 4 kts | 347° |
| 2026-05-05 17:44 | 60.19317 | 11.07851 | 668 ft | 0 kts | 9° |
| 2026-05-05 17:45 | 60.19356 | 11.07869 | 669 ft | 28 kts | 15° |
| 2026-05-05 17:45 | 60.19794 | 11.08122 | 671 ft | 101 kts | 16° |
| 2026-05-05 17:45 | 60.20674 | 11.08629 | 680 ft | 160 kts | 15° |
| 2026-05-05 17:46 | 60.21812 | 11.09311 | 1189 ft | 176 kts | 14° |
| 2026-05-05 17:46 | 60.22992 | 11.10005 | 2114 ft | 179 kts | 12° |
| 2026-05-05 17:46 | 60.24284 | 11.10716 | 2500 ft | 207 kts | 11° |
| 2026-05-05 17:46 | 60.25761 | 11.11341 | 2781 ft | 226 kts | 1° |
| 2026-05-05 17:47 | 60.27390 | 11.11163 | 3109 ft | 245 kts | 349° |
| 2026-05-05 17:47 | 60.29110 | 11.10594 | 3823 ft | 251 kts | 342° |
| 2026-05-05 17:47 | 60.30618 | 11.08962 | 4814 ft | 247 kts | 315° |
| 2026-05-05 17:47 | 60.31581 | 11.06095 | 5641 ft | 251 kts | 290° |
| 2026-05-05 17:48 | 60.31825 | 11.02639 | 6580 ft | 251 kts | 268° |
| 2026-05-05 17:48 | 60.31305 | 10.99251 | 6906 ft | 259 kts | 240° |
| 2026-05-05 17:48 | 60.30544 | 10.95954 | 6957 ft | 262 kts | 264° |
| 2026-05-05 17:48 | 60.30741 | 10.92344 | 7004 ft | 263 kts | 288° |
| 2026-05-05 17:49 | 60.31289 | 10.88837 | 7005 ft | 261 kts | 286° |
| 2026-05-05 17:49 | 60.31781 | 10.85327 | 6993 ft | 260 kts | 284° |
| 2026-05-05 17:49 | 60.31844 | 10.81741 | 7000 ft | 257 kts | 256° |
| 2026-05-05 17:49 | 60.31009 | 10.78561 | 7007 ft | 262 kts | 231° |
| 2026-05-05 17:50 | 60.29605 | 10.76196 | 7014 ft | 267 kts | 215° |
| 2026-05-05 17:50 | 60.28013 | 10.74217 | 7008 ft | 269 kts | 214° |
| 2026-05-05 17:50 | 60.26429 | 10.72293 | 7247 ft | 265 kts | 214° |
| 2026-05-05 17:50 | 60.24835 | 10.70342 | 7864 ft | 270 kts | 214° |
| 2026-05-05 17:51 | 60.23372 | 10.68043 | 8761 ft | 267 kts | 236° |
| 2026-05-05 17:51 | 60.22573 | 10.64713 | 9652 ft | 266 kts | 250° |
| 2026-05-05 17:51 | 60.21904 | 10.61192 | 10354 ft | 273 kts | 251° |
| 2026-05-05 17:51 | 60.21229 | 10.57594 | 10881 ft | 285 kts | 251° |
| 2026-05-05 17:52 | 60.20519 | 10.53839 | 11616 ft | 289 kts | 251° |
| 2026-05-05 17:52 | 60.19794 | 10.50045 | 12443 ft | 292 kts | 251° |
| 2026-05-05 17:52 | 60.19055 | 10.46220 | 13230 ft | 295 kts | 251° |
| 2026-05-05 17:52 | 60.18303 | 10.42366 | 14039 ft | 297 kts | 251° |
| 2026-05-05 17:53 | 60.17549 | 10.38527 | 14886 ft | 295 kts | 251° |
| 2026-05-05 17:53 | 60.16795 | 10.34704 | 15751 ft | 294 kts | 251° |
| 2026-05-05 17:53 | 60.16041 | 10.30901 | 16594 ft | 293 kts | 251° |
| 2026-05-05 17:53 | 60.15284 | 10.27091 | 17401 ft | 294 kts | 251° |
| 2026-05-05 17:54 | 60.14526 | 10.23285 | 18202 ft | 294 kts | 252° |
| 2026-05-05 17:54 | 60.13766 | 10.19481 | 18912 ft | 293 kts | 252° |
| 2026-05-05 17:54 | 60.13010 | 10.15705 | 19668 ft | 291 kts | 252° |
| 2026-05-05 17:54 | 60.12254 | 10.11942 | 20117 ft | 290 kts | 252° |
| 2026-05-05 17:55 | 60.11501 | 10.08198 | 20284 ft | 290 kts | 252° |
| 2026-05-05 17:55 | 60.10746 | 10.04448 | 20464 ft | 291 kts | 252° |
| 2026-05-05 17:55 | 60.09983 | 10.00661 | 20987 ft | 293 kts | 252° |
| 2026-05-05 17:55 | 60.09225 | 9.96916 | 21824 ft | 288 kts | 253° |
| 2026-05-05 17:56 | 60.08475 | 9.93222 | 22591 ft | 286 kts | 253° |
| 2026-05-05 17:56 | 60.07727 | 9.89535 | 23250 ft | 286 kts | 253° |
| 2026-05-05 17:56 | 60.06977 | 9.85844 | 23806 ft | 287 kts | 253° |
| 2026-05-05 17:56 | 60.06217 | 9.82108 | 24238 ft | 291 kts | 253° |
| 2026-05-05 17:57 | 60.05449 | 9.78340 | 24658 ft | 294 kts | 253° |
| 2026-05-05 17:57 | 60.04672 | 9.74536 | 25080 ft | 297 kts | 253° |
| 2026-05-05 17:57 | 60.03887 | 9.70704 | 25577 ft | 298 kts | 253° |
| 2026-05-05 17:57 | 60.03095 | 9.66844 | 26026 ft | 301 kts | 253° |
| 2026-05-05 17:58 | 60.02296 | 9.62954 | 26384 ft | 305 kts | 253° |
| 2026-05-05 17:58 | 60.01485 | 9.59016 | 26808 ft | 307 kts | 253° |
| 2026-05-05 17:58 | 60.00670 | 9.55076 | 27303 ft | 308 kts | 253° |
| 2026-05-05 17:58 | 59.99848 | 9.51104 | 27726 ft | 310 kts | 253° |
| 2026-05-05 17:59 | 59.99021 | 9.47111 | 28113 ft | 313 kts | 252° |
| 2026-05-05 17:59 | 59.98185 | 9.43083 | 28466 ft | 316 kts | 252° |
| 2026-05-05 17:59 | 59.97340 | 9.39021 | 28847 ft | 318 kts | 252° |
| 2026-05-05 17:59 | 59.96487 | 9.34934 | 29233 ft | 320 kts | 252° |
| 2026-05-05 18:00 | 59.95623 | 9.30798 | 29604 ft | 323 kts | 252° |
| 2026-05-05 18:00 | 59.94753 | 9.26639 | 29886 ft | 327 kts | 252° |
| 2026-05-05 18:00 | 59.93872 | 9.22441 | 30196 ft | 329 kts | 252° |
| 2026-05-05 18:00 | 59.92986 | 9.18226 | 30498 ft | 331 kts | 252° |
| 2026-05-05 18:01 | 59.92091 | 9.13975 | 30737 ft | 334 kts | 251° |
| 2026-05-05 18:01 | 59.91185 | 9.09685 | 30987 ft | 337 kts | 251° |
| 2026-05-05 18:01 | 59.90271 | 9.05363 | 31241 ft | 340 kts | 251° |
| 2026-05-05 18:01 | 59.89346 | 9.00999 | 31491 ft | 343 kts | 251° |
| 2026-05-05 18:02 | 59.88415 | 8.96617 | 31736 ft | 345 kts | 251° |
| 2026-05-05 18:02 | 59.87474 | 8.92200 | 31911 ft | 348 kts | 251° |
| 2026-05-05 18:02 | 59.86531 | 8.87774 | 31919 ft | 354 kts | 251° |
| 2026-05-05 18:03 | 59.84559 | 8.78549 | 31927 ft | 366 kts | 251° |
| 2026-05-05 18:03 | 59.82545 | 8.69183 | 31931 ft | 376 kts | 250° |
| 2026-05-05 18:04 | 59.80454 | 8.59501 | 31935 ft | 386 kts | 250° |
| 2026-05-05 18:04 | 59.78320 | 8.49672 | 31939 ft | 388 kts | 250° |
| 2026-05-05 18:05 | 59.76174 | 8.39823 | 31934 ft | 389 kts | 250° |
| 2026-05-05 18:05 | 59.74008 | 8.29965 | 31936 ft | 390 kts | 249° |
| 2026-05-05 18:06 | 59.71468 | 8.20432 | 31951 ft | 391 kts | 245° |
| 2026-05-05 18:06 | 59.68843 | 8.10993 | 31941 ft | 391 kts | 245° |
| 2026-05-05 18:07 | 59.66222 | 8.01567 | 31946 ft | 390 kts | 245° |
| 2026-05-05 18:07 | 59.64914 | 7.96854 | 31634 ft | 394 kts | 245° |
| 2026-05-05 18:07 | 59.63593 | 7.92100 | 31029 ft | 393 kts | 245° |
| 2026-05-05 18:07 | 59.62279 | 7.87380 | 30386 ft | 391 kts | 246° |
| 2026-05-05 18:08 | 59.60976 | 7.82708 | 29867 ft | 386 kts | 246° |
| 2026-05-05 18:08 | 59.59687 | 7.78101 | 29300 ft | 380 kts | 246° |
| 2026-05-05 18:08 | 59.58423 | 7.73590 | 28784 ft | 373 kts | 246° |
| 2026-05-05 18:08 | 59.57175 | 7.69142 | 28258 ft | 367 kts | 246° |
| 2026-05-05 18:09 | 59.55950 | 7.64783 | 27777 ft | 361 kts | 246° |
| 2026-05-05 18:09 | 59.54738 | 7.60477 | 27282 ft | 356 kts | 246° |
| 2026-05-05 18:09 | 59.53544 | 7.56237 | 26785 ft | 352 kts | 246° |
| 2026-05-05 18:09 | 59.52358 | 7.52037 | 26300 ft | 349 kts | 246° |
| 2026-05-05 18:10 | 59.51183 | 7.47880 | 25804 ft | 346 kts | 246° |
| 2026-05-05 18:10 | 59.50016 | 7.43763 | 25334 ft | 343 kts | 246° |
| 2026-05-05 18:10 | 59.48858 | 7.39681 | 24857 ft | 341 kts | 246° |
| 2026-05-05 18:10 | 59.47707 | 7.35635 | 24387 ft | 337 kts | 246° |
| 2026-05-05 18:11 | 59.46564 | 7.31622 | 23938 ft | 335 kts | 246° |
| 2026-05-05 18:11 | 59.45430 | 7.27648 | 23449 ft | 332 kts | 246° |
| 2026-05-05 18:11 | 59.44300 | 7.23696 | 22925 ft | 330 kts | 246° |
| 2026-05-05 18:11 | 59.43178 | 7.19781 | 22461 ft | 327 kts | 246° |
| 2026-05-05 18:12 | 59.42067 | 7.15907 | 21991 ft | 324 kts | 246° |
| 2026-05-05 18:12 | 59.40965 | 7.12071 | 21519 ft | 323 kts | 246° |
| 2026-05-05 18:12 | 59.39864 | 7.08248 | 21090 ft | 320 kts | 246° |
| 2026-05-05 18:12 | 59.38768 | 7.04442 | 20616 ft | 320 kts | 246° |
| 2026-05-05 18:13 | 59.37674 | 7.00653 | 20161 ft | 318 kts | 246° |
| 2026-05-05 18:13 | 59.36586 | 6.96885 | 19702 ft | 317 kts | 246° |
| 2026-05-05 18:13 | 59.35500 | 6.93136 | 19259 ft | 315 kts | 246° |
| 2026-05-05 18:13 | 59.34419 | 6.89413 | 18815 ft | 313 kts | 246° |
| 2026-05-05 18:14 | 59.33341 | 6.85711 | 18386 ft | 312 kts | 245° |
| 2026-05-05 18:14 | 59.32129 | 6.82167 | 17885 ft | 315 kts | 238° |
| 2026-05-05 18:14 | 59.30716 | 6.78874 | 17391 ft | 318 kts | 232° |
| 2026-05-05 18:14 | 59.29030 | 6.76083 | 16898 ft | 323 kts | 225° |
| 2026-05-05 18:15 | 59.27219 | 6.73446 | 16350 ft | 325 kts | 223° |
| 2026-05-05 18:15 | 59.25395 | 6.70824 | 15828 ft | 326 kts | 223° |
| 2026-05-05 18:15 | 59.23577 | 6.68198 | 15432 ft | 324 kts | 223° |
| 2026-05-05 18:15 | 59.21777 | 6.65582 | 15080 ft | 320 kts | 223° |
| 2026-05-05 18:16 | 59.20006 | 6.62987 | 14749 ft | 316 kts | 223° |
| 2026-05-05 18:16 | 59.18823 | 6.61242 | 14551 ft | 314 kts | 223° |
| 2026-05-05 18:16 | 59.17094 | 6.58672 | 14228 ft | 311 kts | 223° |
| 2026-05-05 18:16 | 59.15413 | 6.56152 | 13951 ft | 307 kts | 223° |
| 2026-05-05 18:17 | 59.13734 | 6.53614 | 13630 ft | 304 kts | 223° |
| 2026-05-05 18:17 | 59.12076 | 6.51089 | 13293 ft | 301 kts | 223° |
| 2026-05-05 18:17 | 59.10436 | 6.48584 | 12975 ft | 299 kts | 223° |
| 2026-05-05 18:17 | 59.08805 | 6.46086 | 12626 ft | 298 kts | 223° |
| 2026-05-05 18:18 | 59.07187 | 6.43605 | 12301 ft | 295 kts | 223° |
| 2026-05-05 18:18 | 59.05558 | 6.41091 | 11709 ft | 303 kts | 223° |
| 2026-05-05 18:18 | 59.03902 | 6.38516 | 11130 ft | 307 kts | 223° |
| 2026-05-05 18:18 | 59.02261 | 6.35962 | 10918 ft | 298 kts | 223° |
| 2026-05-05 18:19 | 59.00654 | 6.33458 | 10658 ft | 294 kts | 223° |
| 2026-05-05 18:19 | 58.99070 | 6.30986 | 10418 ft | 290 kts | 223° |
| 2026-05-05 18:19 | 58.97506 | 6.28546 | 10212 ft | 284 kts | 223° |
| 2026-05-05 18:19 | 58.95983 | 6.26174 | 9871 ft | 278 kts | 223° |
| 2026-05-05 18:20 | 58.94497 | 6.23857 | 9540 ft | 270 kts | 223° |
| 2026-05-05 18:20 | 58.93057 | 6.21614 | 9266 ft | 261 kts | 223° |
| 2026-05-05 18:20 | 58.91658 | 6.19441 | 9011 ft | 255 kts | 223° |
| 2026-05-05 18:20 | 58.90282 | 6.17306 | 8780 ft | 252 kts | 223° |
| 2026-05-05 18:21 | 58.88929 | 6.15205 | 8572 ft | 248 kts | 223° |
| 2026-05-05 18:21 | 58.87574 | 6.13097 | 8214 ft | 251 kts | 223° |
| 2026-05-05 18:21 | 58.86225 | 6.10993 | 7986 ft | 246 kts | 223° |
| 2026-05-05 18:21 | 58.84904 | 6.08934 | 7716 ft | 242 kts | 223° |
| 2026-05-05 18:22 | 58.83607 | 6.06910 | 7415 ft | 239 kts | 223° |
| 2026-05-05 18:22 | 58.82318 | 6.04888 | 7140 ft | 239 kts | 223° |
| 2026-05-05 18:22 | 58.81018 | 6.02846 | 6781 ft | 243 kts | 223° |
| 2026-05-05 18:22 | 58.79697 | 6.00766 | 6341 ft | 248 kts | 223° |
| 2026-05-05 18:23 | 58.78375 | 5.98680 | 5905 ft | 248 kts | 223° |
| 2026-05-05 18:23 | 58.77027 | 5.96540 | 5467 ft | 248 kts | 223° |
| 2026-05-05 18:23 | 58.75716 | 5.94453 | 5070 ft | 247 kts | 222° |
| 2026-05-05 18:23 | 58.74395 | 5.92349 | 4708 ft | 246 kts | 223° |
| 2026-05-05 18:24 | 58.73086 | 5.90259 | 4356 ft | 243 kts | 223° |
| 2026-05-05 18:24 | 58.71792 | 5.88194 | 4010 ft | 241 kts | 223° |
| 2026-05-05 18:24 | 58.70518 | 5.86162 | 3784 ft | 235 kts | 223° |
| 2026-05-05 18:24 | 58.69386 | 5.83977 | 3529 ft | 226 kts | 243° |
| 2026-05-05 18:25 | 58.69013 | 5.81222 | 3386 ft | 206 kts | 276° |
| 2026-05-05 18:25 | 58.69109 | 5.79440 | 3320 ft | 201 kts | 281° |
| 2026-05-05 18:25 | 58.69404 | 5.75886 | 3125 ft | 199 kts | 282° |
| 2026-05-05 18:25 | 58.69622 | 5.73329 | 3010 ft | 187 kts | 282° |
| 2026-05-05 18:26 | 58.69819 | 5.70947 | 2995 ft | 177 kts | 283° |
| 2026-05-05 18:26 | 58.70015 | 5.68617 | 3000 ft | 177 kts | 283° |
| 2026-05-05 18:26 | 58.70284 | 5.66336 | 2852 ft | 173 kts | 300° |
| 2026-05-05 18:26 | 58.71174 | 5.64982 | 2563 ft | 167 kts | 349° |
| 2026-05-05 18:27 | 58.72314 | 5.64771 | 2553 ft | 166 kts | 351° |
| 2026-05-05 18:27 | 58.73479 | 5.64465 | 2515 ft | 171 kts | 351° |
| 2026-05-05 18:27 | 58.74668 | 5.64235 | 2506 ft | 172 kts | 355° |
| 2026-05-05 18:27 | 58.75864 | 5.64146 | 2362 ft | 172 kts | 357° |
| 2026-05-05 18:28 | 58.78274 | 5.64066 | 1864 ft | 168 kts | 357° |
| 2026-05-05 18:28 | 58.79404 | 5.64034 | 1647 ft | 157 kts | 356° |
| 2026-05-05 18:28 | 58.80449 | 5.64004 | 1458 ft | 148 kts | 356° |
| 2026-05-05 18:29 | 58.81459 | 5.63973 | 1260 ft | 144 kts | 355° |
| 2026-05-05 18:29 | 58.82479 | 5.63940 | 1012 ft | 148 kts | 356° |
| 2026-05-05 18:29 | 58.83508 | 5.63911 | 768 ft | 149 kts | 356° |
| 2026-05-05 18:29 | 58.84543 | 5.63876 | 573 ft | 149 kts | 356° |
| 2026-05-05 18:30 | 58.85579 | 5.63846 | 396 ft | 149 kts | 356° |
| 2026-05-05 18:30 | 58.86627 | 5.63808 | 161 ft | 150 kts | 356° |
| 2026-05-05 18:30 | 58.87615 | 5.63779 | 35 ft | 133 kts | 356° |
| 2026-05-05 18:30 | 58.88368 | 5.63759 | 30 ft | 78 kts | 359° |
| 2026-05-05 18:31 | 58.88802 | 5.63749 | 26 ft | 56 kts | 358° |
| 2026-05-05 18:31 | 58.89049 | 5.63744 | 22 ft | 22 kts | 360° |
| 2026-05-05 18:31 | 58.89203 | 5.63738 | 20 ft | 22 kts | 359° |
| 2026-05-05 18:31 | 58.89326 | 5.63700 | 19 ft | 14 kts | 320° |
| 2026-05-05 18:32 | 58.89343 | 5.63544 | 17 ft | 12 kts | 270° |
| 2026-05-05 18:32 | 58.89315 | 5.63409 | 22 ft | 11 kts | 208° |
| 2026-05-05 18:32 | 58.89238 | 5.63402 | 24 ft | 11 kts | 178° |
| 2026-05-05 18:32 | 58.89163 | 5.63405 | 25 ft | 11 kts | 178° |
| 2026-05-05 18:33 | 58.89090 | 5.63407 | 25 ft | 11 kts | 180° |
| 2026-05-05 18:33 | 58.89002 | 5.63409 | 26 ft | 14 kts | 179° |
| 2026-05-05 18:33 | 58.88891 | 5.63412 | 29 ft | 17 kts | 179° |
| 2026-05-05 18:33 | 58.88775 | 5.63415 | 30 ft | 16 kts | 179° |
| 2026-05-05 18:34 | 58.88663 | 5.63419 | 31 ft | 16 kts | 179° |
| 2026-05-05 18:34 | 58.88556 | 5.63423 | 28 ft | 15 kts | 179° |
| 2026-05-05 18:34 | 58.88458 | 5.63391 | 27 ft | 14 kts | 227° |
| 2026-05-05 18:34 | 58.88412 | 5.63227 | 27 ft | 14 kts | 212° |
| 2026-05-05 18:35 | 58.88322 | 5.63255 | 28 ft | 13 kts | 162° |
| 2026-05-05 18:35 | 58.88234 | 5.63297 | 29 ft | 13 kts | 169° |
| 2026-05-05 18:35 | 58.88148 | 5.63285 | 29 ft | 12 kts | 199° |
| 2026-05-05 18:35 | 58.88077 | 5.63192 | 27 ft | 10 kts | 224° |
| 2026-05-05 18:36 | 58.88077 | 5.63123 | 30 ft | 6 kts | 313° |
| 2026-05-05 18:36 | 58.88113 | 5.63052 | 24 ft | 6 kts | 315° |
| 2026-05-05 18:36 | 58.88126 | 5.63029 | 24 ft | 0 kts | 315° |